createdAt,value
2022-11-08T00:00:11.050Z,93.80
2022-11-08T00:02:38.304Z,93.80
2022-11-08T00:05:24.423Z,93.70
2022-11-08T00:08:09.645Z,93.80
2022-11-08T00:10:55.063Z,93.70
2022-11-08T00:13:40.477Z,93.70
2022-11-08T00:16:07.500Z,93.90
2022-11-08T00:18:34.843Z,93.90
2022-11-08T00:21:03.176Z,93.90
2022-11-08T00:23:30.543Z,94.00
2022-11-08T00:25:57.572Z,94.00
2022-11-08T00:28:24.450Z,94.00
2022-11-08T00:30:51.323Z,94.10
2022-11-08T00:33:18.251Z,94.00
2022-11-08T00:35:45.119Z,94.00
2022-11-08T00:38:12.011Z,94.00
2022-11-08T00:40:38.884Z,94.00
2022-11-08T00:43:05.769Z,94.00
2022-11-08T00:45:32.635Z,94.10
2022-11-08T00:47:59.531Z,94.10
2022-11-08T00:50:26.416Z,94.20
2022-11-08T00:52:53.293Z,94.30
2022-11-08T00:55:20.151Z,94.30
2022-11-08T00:57:59.085Z,94.60
2022-11-08T01:00:27.442Z,94.40
2022-11-08T01:03:14.331Z,94.40
2022-11-08T01:05:41.489Z,94.30
2022-11-08T01:08:10.134Z,94.30
2022-11-08T01:10:37.705Z,94.20
2022-11-08T01:13:04.610Z,94.30
2022-11-08T01:15:36.501Z,94.30
2022-11-08T01:18:04.808Z,94.30
2022-11-08T01:20:31.987Z,94.30
2022-11-08T01:22:58.861Z,94.30
2022-11-08T01:25:25.811Z,94.30
2022-11-08T01:27:52.690Z,94.20
2022-11-08T01:30:19.586Z,94.30
2022-11-08T01:32:46.458Z,94.30
2022-11-08T01:35:13.320Z,94.40
2022-11-08T01:37:40.218Z,94.40
2022-11-08T01:40:08.111Z,94.40
2022-11-08T01:42:35.007Z,94.40
2022-11-08T01:45:11.866Z,94.30
2022-11-08T01:47:38.746Z,94.30
2022-11-08T01:50:12.057Z,94.30
2022-11-08T01:52:48.022Z,94.30
2022-11-08T01:55:26.436Z,94.20
2022-11-08T01:58:03.139Z,94.20
2022-11-08T02:00:30.556Z,94.20
2022-11-08T02:03:01.786Z,94.20
2022-11-08T02:05:30.516Z,94.20
2022-11-08T02:08:20.512Z,94.20
2022-11-08T02:10:51.679Z,94.20
2022-11-08T02:13:26.152Z,94.10
2022-11-08T02:15:53.087Z,94.10
2022-11-08T02:18:22.879Z,94.10
2022-11-08T02:21:10.746Z,94.10
2022-11-08T02:23:56.357Z,94.10
2022-11-08T02:26:35.304Z,94.00
2022-11-08T02:29:31.589Z,94.00
2022-11-08T02:32:00.474Z,94.00
2022-11-08T02:34:36.898Z,94.00
2022-11-08T02:37:05.742Z,94.00
2022-11-08T02:39:34.192Z,94.00
2022-11-08T02:42:02.546Z,94.00
2022-11-08T02:44:29.592Z,94.00
2022-11-08T02:46:56.534Z,94.00
2022-11-08T02:49:23.423Z,94.00
2022-11-08T02:51:53.727Z,94.00
2022-11-08T02:54:20.736Z,94.00
2022-11-08T02:56:47.683Z,94.00
2022-11-08T02:59:14.928Z,94.10
2022-11-08T03:01:41.967Z,94.10
2022-11-08T03:04:08.946Z,94.20
2022-11-08T03:06:35.813Z,94.20
2022-11-08T03:09:02.929Z,94.40
2022-11-08T03:11:29.794Z,94.40
2022-11-08T03:13:56.677Z,94.40
2022-11-08T03:16:23.838Z,94.40
2022-11-08T03:18:50.756Z,94.70
2022-11-08T03:21:17.623Z,94.40
2022-11-08T03:23:44.556Z,94.40
2022-11-08T03:26:11.435Z,94.30
2022-11-08T03:28:38.352Z,94.30
2022-11-08T03:31:05.251Z,94.30
2022-11-08T03:33:32.121Z,94.40
2022-11-08T03:35:58.987Z,94.40
2022-11-08T03:38:25.862Z,94.40
2022-11-08T03:40:53.770Z,94.40
2022-11-08T03:43:20.655Z,94.40
2022-11-08T03:45:47.514Z,94.40
2022-11-08T03:48:14.532Z,94.30
2022-11-08T03:50:41.561Z,94.30
2022-11-08T03:53:08.450Z,94.30
2022-11-08T03:55:35.342Z,94.30
2022-11-08T03:58:02.225Z,94.30
2022-11-08T04:00:29.992Z,94.30
2022-11-08T04:03:03.217Z,94.30
2022-11-08T04:05:32.241Z,94.30
2022-11-08T04:08:01.098Z,94.30
2022-11-08T04:10:27.979Z,94.20
2022-11-08T04:13:13.265Z,94.20
2022-11-08T04:15:40.244Z,94.20
2022-11-08T04:18:25.686Z,94.20
2022-11-08T04:21:11.142Z,94.20
2022-11-08T04:23:38.517Z,94.20
2022-11-08T04:26:08.320Z,94.20
2022-11-08T04:28:37.391Z,94.20
2022-11-08T04:31:22.415Z,94.20
2022-11-08T04:33:49.286Z,94.20
2022-11-08T04:36:17.419Z,94.10
2022-11-08T04:38:49.570Z,94.10
2022-11-08T04:41:20.403Z,94.10
2022-11-08T04:43:49.686Z,94.10
2022-11-08T04:46:20.368Z,94.00
2022-11-08T04:48:50.301Z,94.00
2022-11-08T04:51:21.001Z,93.90
2022-11-08T04:53:48.032Z,93.90
2022-11-08T04:56:19.485Z,93.90
2022-11-08T04:58:52.734Z,93.90
2022-11-08T05:01:23.138Z,94.00
2022-11-08T05:03:52.370Z,94.00
2022-11-08T05:06:27.399Z,94.10
2022-11-08T05:08:56.183Z,94.10
2022-11-08T05:11:25.651Z,94.20
2022-11-08T05:13:52.762Z,94.10
2022-11-08T05:16:23.805Z,94.20
2022-11-08T05:18:51.080Z,94.20
2022-11-08T05:21:38.983Z,94.20
2022-11-08T05:24:08.735Z,94.30
2022-11-08T05:26:38.699Z,94.30
2022-11-08T05:29:06.018Z,94.40
2022-11-08T05:31:33.066Z,94.40
2022-11-08T05:34:00.757Z,94.50
2022-11-08T05:36:28.508Z,94.50
2022-11-08T05:38:55.906Z,94.60
2022-11-08T05:41:24.295Z,94.60
2022-11-08T05:43:54.274Z,94.60
2022-11-08T05:46:22.791Z,94.50
2022-11-08T05:48:50.400Z,94.50
2022-11-08T05:51:19.191Z,94.40
2022-11-08T05:53:48.495Z,94.40
2022-11-08T05:56:15.588Z,94.50
2022-11-08T05:58:42.474Z,94.30
2022-11-08T06:01:13.301Z,94.30
2022-11-08T06:03:40.341Z,94.40
2022-11-08T06:06:14.059Z,94.30
2022-11-08T06:08:42.507Z,94.50
2022-11-08T06:11:15.276Z,94.30
2022-11-08T06:13:42.946Z,94.40
2022-11-08T06:16:15.610Z,94.40
2022-11-08T06:18:42.817Z,94.40
2022-11-08T06:21:13.706Z,94.30
2022-11-08T06:23:40.698Z,94.40
2022-11-08T06:26:08.352Z,94.30
2022-11-08T06:28:36.202Z,94.40
2022-11-08T06:31:04.506Z,94.40
2022-11-08T06:33:31.766Z,94.30
2022-11-08T06:35:58.735Z,94.30
2022-11-08T06:38:25.644Z,94.30
2022-11-08T06:40:52.501Z,94.30
2022-11-08T06:43:20.428Z,94.30
2022-11-08T06:45:47.797Z,94.30
2022-11-08T06:48:14.750Z,94.20
2022-11-08T06:50:42.706Z,94.20
2022-11-08T06:53:12.753Z,94.20
2022-11-08T06:55:40.147Z,94.20
2022-11-08T06:58:07.087Z,94.20
2022-11-08T07:00:34.108Z,94.20
2022-11-08T07:03:03.349Z,94.20
2022-11-08T07:05:32.816Z,94.30
2022-11-08T07:08:00.956Z,94.30
2022-11-08T07:10:31.056Z,94.30
2022-11-08T07:13:07.640Z,94.40
2022-11-08T07:15:35.609Z,94.40
2022-11-08T07:18:05.604Z,94.40
2022-11-08T07:20:33.223Z,94.40
2022-11-08T07:23:00.238Z,94.40
2022-11-08T07:25:27.873Z,94.40
2022-11-08T07:28:00.186Z,94.40
2022-11-08T07:30:28.426Z,94.40
2022-11-08T07:32:56.103Z,94.40
2022-11-08T07:35:24.419Z,94.40
2022-11-08T07:37:51.397Z,94.70
2022-11-08T07:40:18.337Z,94.30
2022-11-08T07:43:10.186Z,94.30
2022-11-08T07:45:32.099Z,94.30
2022-11-08T07:48:09.490Z,94.30
2022-11-08T07:50:38.353Z,94.30
2022-11-08T07:53:05.236Z,94.20
2022-11-08T07:55:32.104Z,94.20
2022-11-08T07:58:02.607Z,94.20
2022-11-08T08:00:36.510Z,94.20
2022-11-08T08:03:06.116Z,94.20
2022-11-08T08:05:39.840Z,94.20
2022-11-08T08:08:07.234Z,94.20
2022-11-08T08:10:34.729Z,94.20
2022-11-08T08:13:02.561Z,94.20
2022-11-08T08:15:29.471Z,94.10
2022-11-08T08:17:56.423Z,94.20
2022-11-08T08:20:23.806Z,94.20
2022-11-08T08:22:52.270Z,94.20
2022-11-08T08:25:19.990Z,94.10
2022-11-08T08:27:55.398Z,94.20
2022-11-08T08:30:23.717Z,94.00
2022-11-08T08:33:08.443Z,94.00
2022-11-08T08:35:38.746Z,93.90
2022-11-08T08:38:07.025Z,93.80
2022-11-08T08:40:34.677Z,93.70
2022-11-08T08:43:04.877Z,93.60
2022-11-08T08:45:33.292Z,93.70
2022-11-08T08:48:00.862Z,93.60
2022-11-08T08:50:30.373Z,93.60
2022-11-08T08:52:59.272Z,93.70
2022-11-08T08:55:26.676Z,93.60
2022-11-08T08:57:53.845Z,93.60
2022-11-08T09:03:09.871Z,93.60
2022-11-08T09:05:38.132Z,93.60
2022-11-08T09:08:05.098Z,93.50
2022-11-08T09:10:32.013Z,93.30
2022-11-08T09:12:58.864Z,93.40
2022-11-08T09:15:25.795Z,93.00
2022-11-08T09:17:56.804Z,93.10
2022-11-08T09:20:26.013Z,92.80
2022-11-08T09:22:52.865Z,92.70
2022-11-08T09:25:19.756Z,92.70
2022-11-08T09:27:47.337Z,92.70
2022-11-08T09:30:14.317Z,92.60
2022-11-08T09:35:28.274Z,92.30
2022-11-08T09:37:55.813Z,92.40
2022-11-08T09:41:00.098Z,92.30
2022-11-08T09:43:56.052Z,92.30
2022-11-08T09:46:45.473Z,92.30
2022-11-08T09:49:21.898Z,92.10
2022-11-08T09:51:49.893Z,91.90
2022-11-08T09:54:42.603Z,92.00
2022-11-08T09:57:24.535Z,92.00
2022-11-08T10:00:00.729Z,91.80
2022-11-08T10:02:28.223Z,91.70
2022-11-08T10:05:06.061Z,91.70
2022-11-08T10:07:54.246Z,91.60
2022-11-08T10:11:07.568Z,91.20
2022-11-08T10:13:58.114Z,91.30
2022-11-08T10:17:31.446Z,91.20
2022-11-08T10:20:20.506Z,90.90
2022-11-08T10:23:07.512Z,90.90
2022-11-08T10:25:50.469Z,91.10
2022-11-08T10:28:22.812Z,91.00
2022-11-08T10:30:52.358Z,90.90
2022-11-08T10:33:35.467Z,91.00
2022-11-08T10:36:10.512Z,91.00
2022-11-08T10:38:53.175Z,91.10
2022-11-08T10:41:47.264Z,90.90
2022-11-08T10:44:20.888Z,90.90
2022-11-08T10:46:51.054Z,91.00
2022-11-08T10:49:25.497Z,90.90
2022-11-08T10:51:59.169Z,90.80
2022-11-08T10:54:49.866Z,90.70
2022-11-08T10:57:31.798Z,90.50
2022-11-08T11:00:22.086Z,90.80
2022-11-08T11:03:04.375Z,90.50
2022-11-08T11:05:36.254Z,90.70
2022-11-08T11:08:08.049Z,90.70
2022-11-08T11:10:44.199Z,90.50
2022-11-08T11:16:03.291Z,90.20
2022-11-08T11:18:47.298Z,89.70
2022-11-08T11:21:23.187Z,89.70
2022-11-08T11:23:55.626Z,88.90
2022-11-08T11:26:30.777Z,89.70
2022-11-08T11:29:06.785Z,89.60
2022-11-08T11:31:36.984Z,88.60
2022-11-08T11:35:05.843Z,89.00
2022-11-08T11:37:45.534Z,88.40
2022-11-08T11:40:41.362Z,88.20
2022-11-08T11:43:26.274Z,88.20
2022-11-08T11:46:36.254Z,88.60
2022-11-08T11:49:16.527Z,88.50
2022-11-08T11:51:43.436Z,88.80
2022-11-08T11:54:15.535Z,88.50
2022-11-08T11:57:01.940Z,88.60
2022-11-08T11:59:41.111Z,88.50
2022-11-08T12:02:45.636Z,89.00
2022-11-08T12:05:59.669Z,88.30
2022-11-08T12:09:00.043Z,88.00
2022-11-08T12:12:17.207Z,87.80
2022-11-08T12:15:12.435Z,88.10
2022-11-08T12:18:09.589Z,87.70
2022-11-08T12:20:48.313Z,87.50
2022-11-08T12:24:00.307Z,87.40
2022-11-08T12:26:44.589Z,87.00
2022-11-08T12:29:38.892Z,87.00
2022-11-08T12:32:29.969Z,87.50
2022-11-08T12:35:23.948Z,86.90
2022-11-08T12:38:29.167Z,86.70
2022-11-08T12:41:22.981Z,86.40
2022-11-08T12:44:39.193Z,86.20
2022-11-08T12:47:42.018Z,86.20
2022-11-08T12:51:02.255Z,85.90
2022-11-08T12:53:48.579Z,85.80
2022-11-08T12:56:25.559Z,85.90
2022-11-08T12:58:54.640Z,85.90
2022-11-08T13:01:23.579Z,85.80
2022-11-08T13:04:31.261Z,85.90
2022-11-08T13:07:28.303Z,85.10
2022-11-08T13:10:32.507Z,85.80
2022-11-08T13:13:22.725Z,85.50
2022-11-08T13:16:17.301Z,85.50
2022-11-08T13:19:01.279Z,86.20
2022-11-08T13:21:28.052Z,86.20
2022-11-08T13:24:09.794Z,86.20
2022-11-08T13:26:50.065Z,86.60
2022-11-08T13:29:19.867Z,86.70
2022-11-08T13:31:58.837Z,86.90
2022-11-08T13:34:51.506Z,86.80
2022-11-08T13:38:00.714Z,86.60
2022-11-08T13:40:43.667Z,87.10
2022-11-08T13:43:16.590Z,86.90
2022-11-08T13:45:44.421Z,86.80
2022-11-08T13:48:38.215Z,87.00
2022-11-08T13:51:26.900Z,86.90
2022-11-08T13:53:58.092Z,87.10
2022-11-08T13:56:46.415Z,87.10
2022-11-08T13:59:31.793Z,87.10
2022-11-08T14:01:59.191Z,87.20
2022-11-08T14:04:40.260Z,87.50
2022-11-08T14:07:32.160Z,87.70
2022-11-08T14:10:19.973Z,87.80
2022-11-08T14:13:04.557Z,88.00
2022-11-08T14:15:46.440Z,88.20
2022-11-08T14:18:31.098Z,88.20
2022-11-08T14:20:57.988Z,88.20
2022-11-08T14:23:40.647Z,88.40
2022-11-08T14:26:25.370Z,88.50
2022-11-08T14:28:53.377Z,88.70
2022-11-08T14:31:34.458Z,88.80
2022-11-08T14:34:02.188Z,88.80
2022-11-08T14:36:31.827Z,89.10
2022-11-08T14:39:17.484Z,89.20
2022-11-08T14:41:53.564Z,89.30
2022-11-08T14:44:20.649Z,89.20
2022-11-08T14:46:48.808Z,89.20
2022-11-08T14:49:18.136Z,89.20
2022-11-08T14:51:45.746Z,89.10
2022-11-08T14:54:21.800Z,89.00
2022-11-08T14:56:50.294Z,89.00
2022-11-08T14:59:17.991Z,88.80
2022-11-08T15:01:48.407Z,88.70
2022-11-08T15:04:21.746Z,88.70
2022-11-08T15:06:51.575Z,88.60
2022-11-08T15:09:25.441Z,88.40
2022-11-08T15:11:56.453Z,88.40
2022-11-08T15:14:30.665Z,88.50
2022-11-08T15:17:02.746Z,88.50
2022-11-08T15:19:50.335Z,88.60
2022-11-08T15:22:31.467Z,88.80
2022-11-08T15:25:35.275Z,88.90
2022-11-08T15:28:34.754Z,88.90
2022-11-08T15:31:04.909Z,88.90
2022-11-08T15:33:38.310Z,88.90
2022-11-08T15:36:16.255Z,88.80
2022-11-08T15:38:47.960Z,88.70
2022-11-08T15:41:41.409Z,88.70
2022-11-08T15:44:14.618Z,88.70
2022-11-08T15:46:41.695Z,88.30
2022-11-08T15:49:25.697Z,88.20
2022-11-08T15:51:55.227Z,88.00
2022-11-08T15:54:24.489Z,87.90
2022-11-08T15:56:53.587Z,88.10
2022-11-08T15:59:28.139Z,88.00
2022-11-08T16:02:00.875Z,87.90
2022-11-08T16:04:29.225Z,88.00
2022-11-08T16:06:57.815Z,87.90
2022-11-08T16:09:24.822Z,87.80
2022-11-08T16:11:51.911Z,87.70
2022-11-08T16:14:22.786Z,87.70
2022-11-08T16:16:49.809Z,87.70
2022-11-08T16:19:20.101Z,87.60
2022-11-08T16:21:47.432Z,87.40
2022-11-08T16:24:14.444Z,87.60
2022-11-08T16:26:43.163Z,87.50
2022-11-08T16:29:19.495Z,87.40
2022-11-08T16:31:46.854Z,87.50
2022-11-08T16:34:13.788Z,87.60
2022-11-08T16:36:40.660Z,87.30
2022-11-08T16:39:15.725Z,87.40
2022-11-08T16:41:43.025Z,87.40
2022-11-08T16:44:11.005Z,87.30
2022-11-08T16:46:38.411Z,87.30
2022-11-08T16:49:07.274Z,87.40
2022-11-08T16:51:34.187Z,87.20
2022-11-08T16:54:02.982Z,87.10
2022-11-08T16:56:29.971Z,87.20
2022-11-08T16:58:56.886Z,87.30
2022-11-08T17:01:31.387Z,87.30
2022-11-08T17:03:58.350Z,87.20
2022-11-08T17:06:25.261Z,87.20
2022-11-08T17:08:52.166Z,87.20
2022-11-08T17:11:22.811Z,87.30
2022-11-08T17:13:50.844Z,87.20
2022-11-08T17:16:18.795Z,87.20
2022-11-08T17:18:51.319Z,87.20
2022-11-08T17:24:07.139Z,87.20
2022-11-08T17:26:34.016Z,87.30
2022-11-08T17:29:00.901Z,87.40
2022-11-08T17:31:27.775Z,87.50
2022-11-08T17:33:55.739Z,87.50
2022-11-08T17:36:22.634Z,87.60
2022-11-08T17:38:49.691Z,87.60
2022-11-08T17:41:16.835Z,87.50
2022-11-08T17:43:44.135Z,87.40
2022-11-08T17:46:11.744Z,87.50
2022-11-08T17:48:40.111Z,87.60
2022-11-08T17:51:07.369Z,87.60
2022-11-08T17:53:35.024Z,87.60
2022-11-08T17:56:05.425Z,87.60
2022-11-08T17:58:33.968Z,87.60
2022-11-08T18:01:04.493Z,87.50
2022-11-08T18:03:32.177Z,87.50
2022-11-08T18:06:11.276Z,87.40
2022-11-08T18:08:38.440Z,87.40
2022-11-08T18:11:05.895Z,87.40
2022-11-08T18:13:35.071Z,87.50
2022-11-08T18:16:16.205Z,87.40
2022-11-08T18:18:44.955Z,87.40
2022-11-08T18:21:12.549Z,87.40
2022-11-08T18:23:45.237Z,87.20
2022-11-08T18:26:13.401Z,87.30
2022-11-08T18:28:42.377Z,87.20
2022-11-08T18:31:15.961Z,87.20
2022-11-08T18:33:43.257Z,87.10
2022-11-08T18:36:15.460Z,87.20
2022-11-08T18:38:44.706Z,87.20
2022-11-08T18:41:22.172Z,87.10
2022-11-08T18:43:49.595Z,87.10
2022-11-08T18:46:19.628Z,87.20
2022-11-08T18:48:47.003Z,87.90
2022-11-08T18:51:15.816Z,87.20
2022-11-08T18:53:43.278Z,87.20
2022-11-08T18:56:11.656Z,87.10
2022-11-08T18:58:38.582Z,87.00
2022-11-08T19:01:06.285Z,86.90
2022-11-08T19:03:33.905Z,87.00
2022-11-08T19:06:00.772Z,87.00
2022-11-08T19:08:30.532Z,86.90
2022-11-08T19:11:04.065Z,86.70
2022-11-08T19:13:34.542Z,86.70
2022-11-08T19:16:11.911Z,86.70
2022-11-08T19:18:39.532Z,86.40
2022-11-08T19:21:10.763Z,86.60
2022-11-08T19:23:39.036Z,86.50
2022-11-08T19:26:13.207Z,86.40
2022-11-08T19:28:42.853Z,86.40
2022-11-08T19:31:10.102Z,86.30
2022-11-08T19:33:37.039Z,86.00
2022-11-08T19:36:14.135Z,86.10
2022-11-08T19:38:41.603Z,85.70
2022-11-08T19:41:11.868Z,85.70
2022-11-08T19:43:41.612Z,85.60
2022-11-08T19:46:26.731Z,85.60
2022-11-08T19:48:53.695Z,85.50
2022-11-08T19:51:25.499Z,85.40
2022-11-08T19:54:08.347Z,85.20
2022-11-08T19:57:03.663Z,84.70
2022-11-08T19:59:23.737Z,84.90
2022-11-08T20:01:50.725Z,84.80
2022-11-08T20:04:18.600Z,84.80
2022-11-08T20:06:46.312Z,85.20
2022-11-08T20:09:13.416Z,85.10
2022-11-08T20:11:41.678Z,85.10
2022-11-08T20:14:13.611Z,84.70
2022-11-08T20:16:42.980Z,84.70
2022-11-08T20:19:16.618Z,84.60
2022-11-08T20:21:46.085Z,84.30
2022-11-08T20:24:14.591Z,84.20
2022-11-08T20:26:42.916Z,84.40
2022-11-08T20:29:10.490Z,84.30
2022-11-08T20:31:38.939Z,84.20
2022-11-08T20:34:09.813Z,84.10
2022-11-08T20:36:37.511Z,83.80
2022-11-08T20:39:07.711Z,83.90
2022-11-08T20:41:37.451Z,83.90
2022-11-08T20:44:06.259Z,83.90
2022-11-08T20:46:34.471Z,83.90
2022-11-08T20:49:01.927Z,83.60
2022-11-08T20:51:30.872Z,83.60
2022-11-08T20:54:00.117Z,83.50
2022-11-08T20:56:27.984Z,83.50
2022-11-08T20:58:54.948Z,82.80
2022-11-08T21:01:29.081Z,83.10
2022-11-08T21:03:56.369Z,83.20
2022-11-08T21:06:25.698Z,82.80
2022-11-08T21:09:05.867Z,83.00
2022-11-08T21:11:39.967Z,83.10
2022-11-08T21:14:06.956Z,82.70
2022-11-08T21:16:59.388Z,83.80
2022-11-08T21:19:22.793Z,83.00
2022-11-08T21:21:49.844Z,82.80
2022-11-08T21:24:17.224Z,82.90
2022-11-08T21:26:44.186Z,82.90
2022-11-08T21:29:11.089Z,82.90
2022-11-08T21:31:38.043Z,82.90
2022-11-08T21:34:04.949Z,83.00
2022-11-08T21:36:31.847Z,83.10
2022-11-08T21:38:58.767Z,83.40
2022-11-08T21:41:25.811Z,83.50
2022-11-08T21:43:52.735Z,83.70
2022-11-08T21:46:25.685Z,83.90
2022-11-08T21:48:58.435Z,84.20
2022-11-08T21:51:26.597Z,84.30
2022-11-08T21:53:56.122Z,84.40
2022-11-08T21:56:30.671Z,84.50
2022-11-08T21:58:57.884Z,84.50
2022-11-08T22:01:29.861Z,84.60
2022-11-08T22:03:58.713Z,84.70
2022-11-08T22:06:26.348Z,84.70
2022-11-08T22:08:53.468Z,84.80
2022-11-08T22:11:20.406Z,84.90
2022-11-08T22:13:47.326Z,85.00
2022-11-08T22:16:14.287Z,85.10
2022-11-08T22:21:41.306Z,85.40
2022-11-08T22:24:12.739Z,85.30
2022-11-08T22:26:41.195Z,84.90
2022-11-08T22:29:09.005Z,84.90
2022-11-08T22:31:36.272Z,84.40
2022-11-08T22:34:04.070Z,84.30
2022-11-08T22:36:31.852Z,84.60
2022-11-08T22:38:58.894Z,84.30
2022-11-08T22:41:25.880Z,84.00
2022-11-08T22:43:53.424Z,84.20
2022-11-08T22:46:20.513Z,84.20
2022-11-08T22:48:47.761Z,84.20
2022-11-08T22:51:14.738Z,84.20
2022-11-08T22:53:41.897Z,84.30
2022-11-08T22:56:11.743Z,84.30
2022-11-08T22:58:39.531Z,84.30
2022-11-08T23:01:08.224Z,84.20
2022-11-08T23:03:35.169Z,84.10
2022-11-08T23:06:02.082Z,83.90
2022-11-08T23:08:29.297Z,83.90
2022-11-08T23:11:17.548Z,83.70
2022-11-08T23:14:03.279Z,83.50
2022-11-08T23:16:37.130Z,83.20
2022-11-08T23:19:32.917Z,83.00
2022-11-08T23:22:19.325Z,82.80
2022-11-08T23:24:46.308Z,83.00
2022-11-08T23:27:34.715Z,83.20
2022-11-08T23:30:20.396Z,83.20
2022-11-08T23:32:49.915Z,83.20
2022-11-08T23:35:19.570Z,83.10
2022-11-08T23:37:47.147Z,83.00
2022-11-08T23:40:35.140Z,83.00
2022-11-08T23:43:40.940Z,82.90
2022-11-08T23:46:11.180Z,82.50
2022-11-08T23:48:40.207Z,82.80
2022-11-08T23:51:08.213Z,82.90
2022-11-08T23:53:37.159Z,82.70
2022-11-08T23:56:05.134Z,82.50
2022-11-08T23:58:32.546Z,82.60
